Time;durP1;ratioP1;P1;durP2;ratioP2;P2;SDS_P1;SDS_P2;PMS_P1;PMS_P2;Temp;Humidity;BMP_temperature;BMP_pressure;BME280_temperature;BME280_humidity;BME280_pressure;Samples;Min_cycle;Max_cycle;Signal;HPM_P1;HPM_P2
2022/01/06 00:02:07;;;;;;;2.88;1.73;;;21.50;51.20;;;;;;4918097;29;20183;-71
2022/01/06 00:04:33;;;;;;;2.35;1.60;;;21.50;50.60;;;;;;4940496;29;20183;-71
2022/01/06 00:06:59;;;;;;;3.25;2.03;;;21.50;50.60;;;;;;4937061;29;20178;-71
2022/01/06 00:09:24;;;;;;;1.73;1.40;;;21.50;50.60;;;;;;4921505;29;20222;-70
2022/01/06 00:11:50;;;;;;;2.55;1.60;;;21.50;50.60;;;;;;4954202;29;20187;-71
2022/01/06 00:14:37;;;;;;;2.47;1.70;;;21.50;50.60;;;;;;4937005;29;20662;-70
2022/01/06 00:17:23;;;;;;;2.42;1.42;;;21.50;50.60;;;;;;4954043;29;20265;-70
2022/01/06 00:25:18;;;;;;;2.10;1.80;;;21.50;50.60;;;;;;4954297;29;20233;-71
2022/01/06 00:27:44;;;;;;;2.05;1.50;;;21.50;50.60;;;;;;4936775;29;20186;-71
2022/01/06 00:30:10;;;;;;;2.88;1.83;;;21.50;50.60;;;;;;4936752;28;20554;-71
2022/01/06 00:32:36;;;;;;;2.47;1.75;;;21.50;50.60;;;;;;4954086;29;20217;-70
2022/01/06 00:35:03;;;;;;;2.72;1.90;;;21.50;50.60;;;;;;4936683;29;20222;-70
2022/01/06 00:37:28;;;;;;;2.40;1.88;;;21.50;50.60;;;;;;4936583;29;20222;-71
2022/01/06 00:39:54;;;;;;;2.60;1.52;;;21.50;50.60;;;;;;4936749;29;20265;-71
2022/01/06 00:42:20;;;;;;;2.85;1.60;;;21.50;50.60;;;;;;4936643;29;20178;-70
2022/01/06 00:44:46;;;;;;;2.55;1.83;;;21.50;50.60;;;;;;4953711;29;20555;-70
2022/01/06 00:47:11;;;;;;;3.47;1.77;;;21.50;50.60;;;;;;4921204;29;20276;-71
2022/01/06 00:49:37;;;;;;;2.70;1.70;;;21.50;50.60;;;;;;4921160;29;20210;-71
2022/01/06 00:52:03;;;;;;;2.17;1.45;;;21.50;50.60;;;;;;4920771;29;20257;-70
2022/01/06 00:54:32;;;;;;;1.73;1.55;;;21.50;50.60;;;;;;4936426;29;20201;-70
2022/01/06 00:56:58;;;;;;;1.58;1.40;;;21.50;50.60;;;;;;4920700;29;20273;-70
2022/01/06 00:59:23;;;;;;;1.67;1.40;;;21.50;50.60;;;;;;4936429;29;20618;-71
2022/01/06 01:01:49;;;;;;;1.90;1.50;;;21.50;50.60;;;;;;4953789;29;20183;-71
2022/01/06 01:04:15;;;;;;;2.22;1.42;;;21.50;50.60;;;;;;4936740;29;20186;-72
2022/01/06 01:06:40;;;;;;;2.05;1.52;;;21.50;50.60;;;;;;4920661;29;20358;-70
2022/01/06 01:09:06;;;;;;;3.53;1.50;;;21.50;50.50;;;;;;4936445;29;20214;-71
2022/01/06 01:11:32;;;;;;;1.95;1.25;;;21.50;50.60;;;;;;4936858;29;20225;-70
2022/01/06 01:14:07;;;;;;;2.47;1.70;;;21.50;50.50;;;;;;4936528;29;20638;-70
2022/01/06 01:16:33;;;;;;;3.03;1.90;;;21.50;50.50;;;;;;4937897;29;20189;-70
2022/01/06 01:19:03;;;;;;;2.25;1.70;;;21.50;50.50;;;;;;4923952;29;20237;-70
2022/01/06 01:21:29;;;;;;;2.25;1.48;;;21.50;50.50;;;;;;4940040;29;20238;-70
2022/01/06 01:23:59;;;;;;;2.30;1.58;;;21.50;50.50;;;;;;4940004;29;20179;-71
2022/01/06 01:26:26;;;;;;;2.45;1.45;;;21.50;50.40;;;;;;4939479;29;20225;-70
2022/01/06 01:28:53;;;;;;;2.15;1.55;;;21.50;50.50;;;;;;4939776;29;20244;-71
2022/01/06 01:31:25;;;;;;;2.13;1.58;;;21.50;50.50;;;;;;4939710;29;20238;-71
2022/01/06 01:33:56;;;;;;;1.65;1.55;;;21.50;50.50;;;;;;4939800;29;20166;-71
2022/01/06 01:36:22;;;;;;;1.77;1.20;;;21.50;50.50;;;;;;4923674;29;20198;-70
2022/01/06 01:38:48;;;;;;;1.73;1.48;;;21.60;50.60;;;;;;4939371;29;20222;-70
2022/01/06 01:41:14;;;;;;;1.38;1.27;;;21.50;50.50;;;;;;4939913;29;20237;-71
2022/01/06 01:43:41;;;;;;;1.83;1.33;;;21.50;50.50;;;;;;4956741;29;20273;-71
2022/01/06 01:46:13;;;;;;;1.63;1.13;;;21.50;50.50;;;;;;4923273;29;20192;-71
2022/01/06 01:48:46;;;;;;;1.35;1.15;;;21.50;50.50;;;;;;4939697;28;20245;-71
2022/01/06 01:51:12;;;;;;;2.22;1.52;;;21.50;50.50;;;;;;4939479;29;20658;-71
2022/01/06 01:53:38;;;;;;;2.20;1.30;;;21.50;50.50;;;;;;4939419;29;20193;-71
2022/01/06 01:56:07;;;;;;;3.13;1.70;;;21.50;50.50;;;;;;4939098;29;20214;-71
2022/01/06 01:58:35;;;;;;;1.40;1.20;;;21.60;50.60;;;;;;4956262;29;20225;-70
2022/01/06 02:01:01;;;;;;;2.38;1.33;;;21.60;50.60;;;;;;4939256;29;20242;-70
2022/01/06 02:03:30;;;;;;;1.83;1.38;;;21.60;50.60;;;;;;4955056;28;20187;-71
2022/01/06 02:05:56;;;;;;;2.20;1.50;;;21.60;50.60;;;;;;4939127;29;20745;-71
2022/01/06 02:08:22;;;;;;;1.50;1.30;;;21.60;50.60;;;;;;4956160;29;20289;-70
2022/01/06 02:10:48;;;;;;;1.77;1.45;;;21.60;50.50;;;;;;4923094;29;20202;-70
2022/01/06 02:13:15;;;;;;;2.53;1.45;;;21.60;50.60;;;;;;4923473;29;20190;-70
2022/01/06 02:15:41;;;;;;;2.10;1.40;;;21.60;50.60;;;;;;4938679;29;20223;-71
2022/01/06 02:18:07;;;;;;;2.20;1.45;;;21.60;50.60;;;;;;4939002;29;20281;-71
2022/01/06 02:20:33;;;;;;;1.70;1.50;;;21.50;50.60;;;;;;4938813;29;20190;-70
2022/01/06 02:22:58;;;;;;;1.40;1.30;;;21.60;50.60;;;;;;4938640;29;20293;-71
2022/01/06 02:25:32;;;;;;;3.20;1.38;;;21.60;50.60;;;;;;4919664;29;20218;-71
2022/01/06 02:28:03;;;;;;;1.73;1.13;;;21.60;50.60;;;;;;4934513;29;20215;-71
2022/01/06 02:30:33;;;;;;;1.88;1.67;;;21.60;51.20;;;;;;4935809;29;20187;-71
2022/01/06 02:33:01;;;;;;;1.83;1.40;;;21.60;50.60;;;;;;4935504;29;20187;-70
2022/01/06 02:35:29;;;;;;;1.17;1.08;;;21.50;50.40;;;;;;4919498;29;20192;-71
2022/01/06 02:37:55;;;;;;;1.60;1.35;;;21.60;50.60;;;;;;4935167;29;20226;-71
2022/01/06 02:40:25;;;;;;;1.73;1.42;;;21.60;50.50;;;;;;4919440;29;20187;-70
2022/01/06 02:42:55;;;;;;;2.08;1.27;;;21.50;50.40;;;;;;4935526;28;20206;-70
2022/01/06 02:45:26;;;;;;;1.42;1.15;;;21.60;50.50;;;;;;4936077;29;20262;-70
2022/01/06 02:47:54;;;;;;;1.60;1.20;;;21.60;50.50;;;;;;4936622;29;20218;-70
2022/01/06 02:50:20;;;;;;;1.73;1.20;;;21.60;50.40;;;;;;4935157;29;20222;-70
2022/01/06 02:52:46;;;;;;;2.33;1.52;;;21.60;50.50;;;;;;4935276;29;20195;-70
2022/01/06 02:55:14;;;;;;;1.60;1.13;;;21.60;50.50;;;;;;4935187;29;20222;-70
2022/01/06 02:57:42;;;;;;;1.92;1.20;;;21.60;50.40;;;;;;4935867;29;20225;-71
2022/01/06 03:00:13;;;;;;;1.48;1.27;;;21.60;50.50;;;;;;4919155;29;20274;-71
2022/01/06 03:02:41;;;;;;;1.90;1.20;;;21.60;50.40;;;;;;4919291;29;20175;-71
2022/01/06 03:05:08;;;;;;;1.45;1.00;;;21.60;50.50;;;;;;4918765;29;20186;-70
2022/01/06 03:07:34;;;;;;;1.63;1.15;;;21.60;50.50;;;;;;4936042;29;20187;-70
2022/01/06 03:10:02;;;;;;;1.83;1.00;;;21.60;50.50;;;;;;4934984;29;20194;-70
2022/01/06 03:12:39;;;;;;;1.67;1.42;;;21.60;50.50;;;;;;4948196;28;20550;-71
2022/01/06 03:15:20;;;;;;;1.50;1.13;;;21.60;50.40;;;;;;4951590;29;20189;-70
2022/01/06 03:17:55;;;;;;;1.40;1.25;;;21.60;50.40;;;;;;4953618;29;20202;-70
2022/01/06 03:20:23;;;;;;;1.33;1.23;;;21.60;50.40;;;;;;4953859;29;20178;-70
2022/01/06 03:22:50;;;;;;;2.47;1.63;;;21.60;50.40;;;;;;4953683;29;20179;-71
2022/01/06 03:25:16;;;;;;;1.52;1.10;;;21.60;50.40;;;;;;4953801;28;20182;-71
2022/01/06 03:27:43;;;;;;;2.58;1.33;;;21.60;50.40;;;;;;4937580;29;20198;-71
2022/01/06 03:30:13;;;;;;;2.53;1.52;;;21.60;50.40;;;;;;4953575;29;20200;-71
2022/01/06 03:32:40;;;;;;;2.13;1.50;;;21.60;50.40;;;;;;4937614;29;20191;-71
2022/01/06 03:35:08;;;;;;;1.13;1.00;;;21.60;50.40;;;;;;4954755;28;20190;-71
2022/01/06 03:37:35;;;;;;;1.20;1.05;;;21.50;50.30;;;;;;4953262;29;20218;-70
2022/01/06 03:40:04;;;;;;;1.67;0.90;;;21.60;50.40;;;;;;4953388;28;20175;-70
2022/01/06 03:42:35;;;;;;;1.23;1.00;;;21.60;50.40;;;;;;4937559;29;20186;-71
2022/01/06 03:45:06;;;;;;;1.10;1.00;;;21.60;50.40;;;;;;4953121;28;20190;-70
2022/01/06 03:47:34;;;;;;;1.70;0.95;;;21.60;50.40;;;;;;4953215;29;20186;-70
2022/01/06 03:50:00;;;;;;;0.80;0.80;;;21.60;50.40;;;;;;4953315;29;20197;-70
2022/01/06 03:52:26;;;;;;;3.08;1.10;;;21.60;50.40;;;;;;4953480;29;20213;-71
2022/01/06 03:54:52;;;;;;;1.48;1.00;;;21.60;50.30;;;;;;4954225;29;20171;-71
2022/01/06 03:57:18;;;;;;;1.10;1.00;;;21.60;50.40;;;;;;4937340;29;20654;-70
2022/01/06 03:59:44;;;;;;;1.30;0.93;;;21.60;50.40;;;;;;4937164;29;20214;-71
2022/01/06 04:02:09;;;;;;;1.25;1.10;;;21.60;50.40;;;;;;4937458;29;20197;-70
2022/01/06 04:04:35;;;;;;;1.90;1.00;;;21.60;50.30;;;;;;4952835;29;20228;-70
2022/01/06 04:07:01;;;;;;;1.27;1.17;;;21.60;50.40;;;;;;4953133;29;20289;-70
2022/01/06 04:09:27;;;;;;;2.55;1.23;;;21.60;50.30;;;;;;4953121;29;20216;-71
2022/01/06 04:11:52;;;;;;;1.35;1.25;;;21.60;50.30;;;;;;4953042;29;20190;-71
2022/01/06 04:14:18;;;;;;;1.67;1.20;;;21.60;50.30;;;;;;4937082;29;20182;-69
2022/01/06 04:16:44;;;;;;;1.45;1.35;;;21.60;50.30;;;;;;4937359;29;20206;-71
2022/01/06 04:19:10;;;;;;;1.50;0.98;;;21.60;50.30;;;;;;4940613;29;20217;-71
2022/01/06 04:21:36;;;;;;;1.10;1.00;;;21.60;50.30;;;;;;4953787;29;20214;-71
2022/01/06 04:24:02;;;;;;;2.55;1.10;;;21.60;50.30;;;;;;4937077;28;20190;-70
2022/01/06 04:26:28;;;;;;;1.63;1.02;;;21.60;50.30;;;;;;4936898;29;20191;-71
2022/01/06 04:28:54;;;;;;;1.83;1.55;;;21.60;50.30;;;;;;4921526;29;20210;-71
2022/01/06 04:31:20;;;;;;;0.90;0.90;;;21.60;50.40;;;;;;4921421;29;20681;-71
2022/01/06 04:33:46;;;;;;;1.23;1.02;;;21.60;50.30;;;;;;4936989;29;20248;-71
2022/01/06 04:36:11;;;;;;;1.20;0.90;;;21.60;50.40;;;;;;4920945;29;20217;-70
2022/01/06 04:38:37;;;;;;;1.73;1.20;;;21.60;50.40;;;;;;4936648;29;20222;-70
2022/01/06 04:41:04;;;;;;;0.80;0.80;;;21.60;50.40;;;;;;4936944;28;20195;-70
2022/01/06 04:43:30;;;;;;;1.20;1.00;;;21.60;50.40;;;;;;4920936;29;20190;-71
2022/01/06 04:45:56;;;;;;;1.20;1.00;;;21.60;50.30;;;;;;4937034;29;20182;-71
2022/01/06 04:48:22;;;;;;;1.10;1.00;;;21.60;50.30;;;;;;4953888;29;20217;-70
2022/01/06 04:50:48;;;;;;;1.30;1.00;;;21.60;50.30;;;;;;4921620;29;20238;-70
2022/01/06 04:53:14;;;;;;;2.05;1.23;;;21.60;50.40;;;;;;4940599;29;20167;-71
2022/01/06 04:55:39;;;;;;;1.55;1.00;;;21.60;50.30;;;;;;4940167;29;20688;-71
2022/01/06 04:58:05;;;;;;;1.40;1.00;;;21.60;50.30;;;;;;4957322;29;20226;-71
2022/01/06 05:00:31;;;;;;;1.25;1.15;;;21.60;50.30;;;;;;4940257;29;20224;-70
2022/01/06 05:02:57;;;;;;;1.35;1.00;;;21.60;50.30;;;;;;4924394;29;20225;-71
2022/01/06 05:05:22;;;;;;;1.08;1.08;;;21.60;50.30;;;;;;4924115;29;20183;-71
2022/01/06 05:07:48;;;;;;;1.25;0.90;;;21.60;50.20;;;;;;4940082;29;20221;-70
2022/01/06 05:10:14;;;;;;;1.23;1.13;;;21.60;50.20;;;;;;4939905;29;20241;-71
2022/01/06 05:12:43;;;;;;;1.33;1.10;;;21.60;50.20;;;;;;4940152;29;20190;-71
2022/01/06 05:15:11;;;;;;;1.30;1.00;;;21.60;50.20;;;;;;4956958;29;20369;-71
2022/01/06 05:17:37;;;;;;;0.93;0.82;;;21.60;50.30;;;;;;4923850;29;20220;-71
2022/01/06 05:20:07;;;;;;;1.10;1.00;;;21.50;50.20;;;;;;4924068;29;20190;-70
2022/01/06 05:22:35;;;;;;;1.25;0.95;;;21.60;50.20;;;;;;4924120;29;20182;-70
2022/01/06 05:25:01;;;;;;;1.10;1.00;;;21.60;50.20;;;;;;4924047;29;20232;-70
2022/01/06 05:27:26;;;;;;;1.00;0.90;;;21.60;50.20;;;;;;4923966;29;20285;-71
2022/01/06 05:29:52;;;;;;;0.80;0.80;;;21.60;50.30;;;;;;4943385;29;20244;-70
2022/01/06 05:32:18;;;;;;;1.23;0.80;;;21.60;50.30;;;;;;4920969;29;20195;-71
2022/01/06 05:34:44;;;;;;;0.60;0.60;;;21.60;50.30;;;;;;4920704;29;20191;-71
2022/01/06 05:37:10;;;;;;;0.85;0.80;;;21.60;50.30;;;;;;4920556;29;20193;-71
2022/01/06 05:39:36;;;;;;;0.90;0.68;;;21.60;50.20;;;;;;4920695;29;20214;-71
2022/01/06 05:42:02;;;;;;;1.25;0.90;;;21.60;50.30;;;;;;4920466;29;20266;-70
2022/01/06 05:44:32;;;;;;;1.20;0.93;;;21.60;50.20;;;;;;4920295;29;20194;-71
2022/01/06 05:46:58;;;;;;;0.70;0.70;;;21.60;50.20;;;;;;4936210;29;20191;-71
2022/01/06 05:49:24;;;;;;;0.88;0.88;;;21.60;50.30;;;;;;4936331;29;20222;-70
2022/01/06 05:51:50;;;;;;;1.38;1.27;;;21.60;50.20;;;;;;4920208;29;20195;-70
2022/01/06 05:54:15;;;;;;;1.00;0.85;;;21.60;50.20;;;;;;4936097;29;20684;-70
2022/01/06 05:56:41;;;;;;;1.00;0.90;;;21.60;50.20;;;;;;4935968;29;20203;-70
2022/01/06 05:59:07;;;;;;;1.30;1.00;;;21.60;50.20;;;;;;4936054;29;20227;-71
2022/01/06 06:01:33;;;;;;;1.05;0.90;;;21.60;50.20;;;;;;4935892;29;20195;-70
2022/01/06 06:03:58;;;;;;;1.10;1.00;;;21.60;50.20;;;;;;4919085;29;20187;-71
2022/01/06 06:06:24;;;;;;;0.98;0.82;;;21.60;50.20;;;;;;4904183;29;20227;-71
2022/01/06 06:08:50;;;;;;;1.00;0.90;;;21.60;50.20;;;;;;4920315;29;20207;-70
2022/01/06 06:11:16;;;;;;;1.20;1.00;;;21.60;50.20;;;;;;4929443;29;20191;-70
2022/01/06 06:13:41;;;;;;;1.52;1.00;;;21.60;50.20;;;;;;4954775;29;20254;-71
2022/01/06 06:16:07;;;;;;;0.95;0.93;;;21.60;50.20;;;;;;4954674;28;20196;-71
2022/01/06 06:18:33;;;;;;;1.13;0.90;;;21.60;50.20;;;;;;4927354;29;20285;-70
2022/01/06 06:20:59;;;;;;;1.00;0.90;;;21.60;50.10;;;;;;4923058;29;20398;-70
2022/01/06 06:23:24;;;;;;;0.95;0.90;;;21.60;50.20;;;;;;4922956;29;20249;-71
2022/01/06 06:25:50;;;;;;;1.10;1.00;;;21.60;50.20;;;;;;4922658;29;20188;-71
2022/01/06 06:28:16;;;;;;;0.90;0.90;;;21.60;50.20;;;;;;4938711;29;20281;-70
2022/01/06 06:30:42;;;;;;;1.33;0.90;;;21.60;50.20;;;;;;4922808;29;20249;-71
2022/01/06 06:33:07;;;;;;;1.13;0.88;;;21.60;50.20;;;;;;4938737;29;20183;-71
2022/01/06 06:35:33;;;;;;;0.95;0.90;;;21.60;50.20;;;;;;4922567;29;20194;-70
2022/01/06 06:37:59;;;;;;;0.90;0.90;;;21.60;50.20;;;;;;4955427;29;20706;-70
2022/01/06 06:40:25;;;;;;;0.85;0.85;;;21.60;50.20;;;;;;4922627;29;20194;-71
2022/01/06 06:42:52;;;;;;;0.80;0.80;;;21.60;50.20;;;;;;4922553;29;20223;-71
2022/01/06 06:45:19;;;;;;;1.55;0.80;;;21.60;50.10;;;;;;4938256;29;20190;-70
2022/01/06 06:47:46;;;;;;;1.20;0.88;;;21.60;50.10;;;;;;4922693;29;20191;-71
2022/01/06 06:50:15;;;;;;;1.08;0.70;;;21.60;50.10;;;;;;4937075;29;20234;-71
2022/01/06 06:52:42;;;;;;;1.10;0.80;;;21.60;50.10;;;;;;4938507;29;20255;-71
2022/01/06 06:55:08;;;;;;;0.70;0.70;;;21.60;50.10;;;;;;4954035;29;20178;-71
2022/01/06 06:57:34;;;;;;;0.70;0.70;;;21.60;50.10;;;;;;4955593;28;20206;-69
2022/01/06 07:00:03;;;;;;;0.98;0.88;;;21.60;50.10;;;;;;4954046;29;20273;-71
2022/01/06 07:02:31;;;;;;;0.80;0.80;;;21.60;50.10;;;;;;4991013;23;20315;-71
2022/01/06 07:04:57;;;;;;;0.90;0.90;;;21.60;50.10;;;;;;4975955;28;20185;-71
2022/01/06 07:07:23;;;;;;;1.30;1.00;;;21.60;50.10;;;;;;4992844;28;20201;-71
2022/01/06 07:09:50;;;;;;;0.80;0.80;;;21.60;50.10;;;;;;4992572;28;20188;-71
2022/01/06 07:12:16;;;;;;;1.58;0.80;;;21.60;50.10;;;;;;4988910;28;20213;-71
2022/01/06 07:14:42;;;;;;;0.80;0.80;;;21.60;50.10;;;;;;4956441;28;20197;-71
2022/01/06 07:17:08;;;;;;;1.02;0.90;;;21.60;50.10;;;;;;4973029;28;20193;-71
2022/01/06 07:19:34;;;;;;;0.68;0.68;;;21.60;50.20;;;;;;4956926;28;20189;-71
2022/01/06 07:21:59;;;;;;;0.80;0.70;;;21.60;50.10;;;;;;4956822;28;20178;-71
2022/01/06 07:24:25;;;;;;;0.73;0.73;;;21.60;50.10;;;;;;4973831;28;20178;-71
2022/01/06 07:26:52;;;;;;;0.88;0.85;;;21.60;50.10;;;;;;4974133;28;20169;-71
2022/01/06 07:29:17;;;;;;;0.77;0.77;;;21.60;50.10;;;;;;4972891;28;20186;-71
2022/01/06 07:31:43;;;;;;;0.77;0.77;;;21.60;50.10;;;;;;4956678;28;20307;-72
2022/01/06 07:34:09;;;;;;;0.80;0.80;;;21.60;50.10;;;;;;4973992;28;20182;-71
2022/01/06 07:36:35;;;;;;;1.25;0.80;;;21.60;50.10;;;;;;4972691;28;20192;-71
2022/01/06 07:39:02;;;;;;;0.80;0.80;;;21.60;50.10;;;;;;4956579;28;20214;-71
2022/01/06 07:41:28;;;;;;;1.17;0.77;;;21.60;50.00;;;;;;4956955;28;20316;-71
2022/01/06 07:43:54;;;;;;;0.60;0.60;;;21.70;50.10;;;;;;4956861;28;20277;-71
2022/01/06 07:46:19;;;;;;;0.88;0.80;;;21.60;50.00;;;;;;4965670;28;20194;-71
2022/01/06 07:49:03;;;;;;;0.70;0.70;;;21.60;50.00;;;;;;4972391;28;20185;-70
2022/01/06 07:51:31;;;;;;;1.30;0.90;;;21.60;50.10;;;;;;4956725;28;20248;-71
2022/01/06 07:53:59;;;;;;;0.90;0.90;;;21.60;50.00;;;;;;4972424;28;20300;-71
2022/01/06 07:56:25;;;;;;;0.85;0.85;;;21.60;50.00;;;;;;4956479;28;20189;-71
2022/01/06 07:58:51;;;;;;;1.58;0.93;;;21.60;50.00;;;;;;4973798;28;20220;-71
2022/01/06 08:01:17;;;;;;;0.70;0.70;;;21.60;50.00;;;;;;4956048;28;20182;-71
2022/01/06 08:03:43;;;;;;;1.10;1.00;;;21.60;50.00;;;;;;4972348;28;20228;-71
2022/01/06 08:06:11;;;;;;;0.63;0.63;;;21.60;50.00;;;;;;4988175;28;20190;-71
2022/01/06 08:08:37;;;;;;;1.10;0.80;;;21.70;50.10;;;;;;4972766;28;20232;-71
2022/01/06 08:11:04;;;;;;;0.70;0.65;;;21.60;50.00;;;;;;4956813;28;20225;-71
2022/01/06 08:13:30;;;;;;;0.77;0.70;;;21.60;50.10;;;;;;4972054;28;20213;-71
2022/01/06 08:15:55;;;;;;;0.60;0.60;;;21.60;50.00;;;;;;4956190;28;20192;-71
2022/01/06 08:18:22;;;;;;;0.90;0.80;;;21.60;50.10;;;;;;4956196;28;20288;-70
2022/01/06 08:20:48;;;;;;;0.77;0.70;;;21.60;50.00;;;;;;4972526;28;20189;-71
2022/01/06 08:23:13;;;;;;;0.60;0.60;;;21.70;50.10;;;;;;4972328;28;20209;-71
2022/01/06 08:25:39;;;;;;;0.80;0.80;;;21.60;50.00;;;;;;4956459;28;20190;-71
2022/01/06 08:28:05;;;;;;;1.33;0.70;;;21.70;50.00;;;;;;4976253;28;20195;-71
2022/01/06 08:30:32;;;;;;;0.85;0.80;;;21.70;50.10;;;;;;4977331;28;20209;-71
2022/01/06 08:32:59;;;;;;;1.40;0.90;;;21.70;50.10;;;;;;4976018;28;20209;-70
2022/01/06 08:35:25;;;;;;;0.80;0.80;;;21.70;50.00;;;;;;4975809;28;20190;-71
2022/01/06 08:37:51;;;;;;;1.20;0.88;;;21.70;50.00;;;;;;4976270;28;20264;-72
2022/01/06 08:40:18;;;;;;;0.85;0.80;;;21.70;50.00;;;;;;4959813;28;20177;-70
2022/01/06 08:42:46;;;;;;;1.30;0.93;;;21.70;50.10;;;;;;4976147;28;20244;-70
2022/01/06 08:45:13;;;;;;;0.82;0.77;;;21.70;50.00;;;;;;4975556;28;20197;-70
2022/01/06 08:47:39;;;;;;;0.80;0.80;;;21.70;50.00;;;;;;4975828;28;20221;-70
2022/01/06 08:50:06;;;;;;;0.88;0.88;;;21.70;50.00;;;;;;4992104;28;20249;-69
2022/01/06 08:52:35;;;;;;;1.20;0.85;;;21.70;50.00;;;;;;4991992;28;20263;-70
2022/01/06 08:55:02;;;;;;;1.05;0.73;;;21.70;50.00;;;;;;4975647;28;20186;-70
2022/01/06 08:57:28;;;;;;;0.98;0.95;;;21.70;50.10;;;;;;4975562;28;20235;-70
2022/01/06 08:59:53;;;;;;;0.80;0.80;;;21.70;50.10;;;;;;4975774;28;20190;-71
2022/01/06 09:02:19;;;;;;;0.93;0.80;;;21.70;50.10;;;;;;4991603;28;20708;-70
2022/01/06 09:04:45;;;;;;;1.60;0.70;;;21.70;50.00;;;;;;4976514;28;20232;-70
2022/01/06 09:07:11;;;;;;;0.80;0.80;;;21.70;50.10;;;;;;4991707;28;20237;-70
2022/01/06 09:09:39;;;;;;;1.13;0.80;;;21.70;50.00;;;;;;4991893;28;20185;-70
2022/01/06 09:12:07;;;;;;;1.08;0.70;;;21.80;50.10;;;;;;4976475;28;20209;-70
2022/01/06 09:14:32;;;;;;;0.80;0.80;;;21.70;50.00;;;;;;4975194;28;20173;-71
2022/01/06 09:16:59;;;;;;;0.63;0.63;;;21.80;50.10;;;;;;4975277;28;20190;-71
2022/01/06 09:19:25;;;;;;;1.02;0.73;;;21.80;50.00;;;;;;4975406;28;20316;-71
2022/01/06 09:21:51;;;;;;;1.52;1.00;;;21.80;50.10;;;;;;4975165;28;20280;-70
2022/01/06 09:24:18;;;;;;;0.90;0.70;;;21.80;50.10;;;;;;4959388;28;20214;-71
2022/01/06 09:26:44;;;;;;;1.02;0.70;;;21.80;50.00;;;;;;4976433;28;20189;-70
2022/01/06 09:29:13;;;;;;;1.02;0.98;;;21.80;50.00;;;;;;4991298;28;20241;-70
2022/01/06 09:31:41;;;;;;;1.02;0.90;;;21.80;50.00;;;;;;4976175;28;20277;-70
2022/01/06 09:34:08;;;;;;;0.98;0.95;;;21.80;50.10;;;;;;4975186;28;20221;-71
2022/01/06 09:36:36;;;;;;;1.00;0.98;;;21.80;50.10;;;;;;4958309;28;20189;-70
2022/01/06 09:39:05;;;;;;;1.40;1.00;;;21.80;50.10;;;;;;4975193;28;20248;-70
2022/01/06 09:41:30;;;;;;;0.95;0.90;;;21.80;50.10;;;;;;4974923;28;20649;-70
2022/01/06 09:44:00;;;;;;;1.05;0.90;;;21.80;50.00;;;;;;4958550;28;20212;-70
2022/01/06 09:46:28;;;;;;;1.58;1.00;;;21.80;50.00;;;;;;4975770;28;20196;-70
2022/01/06 09:48:59;;;;;;;0.80;0.80;;;21.80;50.10;;;;;;4974992;28;20432;-70
2022/01/06 09:51:28;;;;;;;0.80;0.80;;;21.80;50.00;;;;;;4974749;28;20182;-70
2022/01/06 09:53:58;;;;;;;0.68;0.60;;;21.80;50.10;;;;;;4975844;28;20220;-70
2022/01/06 09:56:27;;;;;;;1.08;0.80;;;21.80;50.10;;;;;;4958756;28;20185;-71
2022/01/06 09:58:54;;;;;;;0.80;0.80;;;21.80;50.00;;;;;;4974376;28;20685;-71
2022/01/06 10:01:21;;;;;;;1.08;0.90;;;21.80;50.00;;;;;;4974495;28;20197;-70
2022/01/06 10:03:48;;;;;;;1.05;0.70;;;21.80;50.00;;;;;;4974550;28;20213;-70
2022/01/06 10:06:26;;;;;;;1.88;0.90;;;21.80;50.00;;;;;;4975458;28;20571;-70
2022/01/06 10:08:59;;;;;;;1.08;0.80;;;21.80;50.00;;;;;;4974409;28;20653;-70
2022/01/06 10:11:31;;;;;;;1.67;1.00;;;21.80;50.00;;;;;;4974550;28;20194;-70
2022/01/06 10:14:07;;;;;;;1.73;1.27;;;21.80;50.00;;;;;;4958430;28;20304;-70
2022/01/06 10:16:38;;;;;;;1.13;1.00;;;21.80;50.00;;;;;;4975296;28;20182;-70
2022/01/06 10:19:10;;;;;;;1.52;1.10;;;21.80;50.00;;;;;;4974133;28;20252;-70
2022/01/06 10:21:46;;;;;;;1.20;0.80;;;21.80;50.10;;;;;;4974228;28;20181;-71
2022/01/06 10:24:22;;;;;;;0.93;0.90;;;21.80;50.10;;;;;;4974071;28;20273;-70
2022/01/06 10:27:09;;;;;;;1.48;1.00;;;21.80;50.10;;;;;;4974473;28;20174;-70
2022/01/06 10:29:48;;;;;;;1.02;0.80;;;21.80;50.00;;;;;;4973854;28;20196;-70
2022/01/06 10:32:16;;;;;;;0.80;0.80;;;21.80;50.00;;;;;;4974243;28;20225;-70
2022/01/06 10:34:47;;;;;;;1.35;0.75;;;21.80;50.00;;;;;;4973662;28;20669;-71
2022/01/06 10:37:38;;;;;;;1.55;1.00;;;21.90;50.00;;;;;;4973798;28;20194;-71
2022/01/06 10:40:16;;;;;;;2.25;1.15;;;21.90;50.00;;;;;;4975065;28;20193;-69
2022/01/06 10:42:47;;;;;;;1.40;0.93;;;21.80;49.90;;;;;;4963895;28;20205;-70
2022/01/06 10:45:21;;;;;;;1.23;0.98;;;21.80;50.00;;;;;;4984856;28;20173;-70
2022/01/06 10:47:53;;;;;;;1.63;0.82;;;21.90;50.10;;;;;;4993412;28;20173;-69
2022/01/06 10:50:34;;;;;;;1.20;1.00;;;21.90;50.00;;;;;;4976389;28;20174;-70
2022/01/06 10:53:10;;;;;;;1.08;0.93;;;21.80;50.00;;;;;;4994140;28;20287;-69
2022/01/06 10:55:41;;;;;;;1.67;1.10;;;21.90;50.10;;;;;;4976945;28;20247;-70
2022/01/06 10:58:16;;;;;;;1.75;1.35;;;21.90;50.00;;;;;;4976935;28;20232;-70
2022/01/06 11:00:45;;;;;;;1.73;0.93;;;21.90;50.00;;;;;;4976984;28;20181;-70
2022/01/06 11:03:13;;;;;;;0.98;0.90;;;21.90;50.00;;;;;;4992853;28;20244;-70
2022/01/06 11:06:00;;;;;;;1.02;0.90;;;21.90;49.90;;;;;;5008925;28;20181;-70
2022/01/06 11:08:36;;;;;;;1.05;0.80;;;21.90;50.00;;;;;;4992873;28;20271;-70
2022/01/06 11:13:47;;;;;;;0.93;0.77;;;21.90;50.00;;;;;;4983195;28;20236;-69
2022/01/06 11:16:16;;;;;;;1.58;0.77;;;21.90;50.10;;;;;;4983116;28;20201;-69
2022/01/06 11:18:56;;;;;;;1.05;0.80;;;21.90;50.10;;;;;;4972921;28;20604;-70
2022/01/06 11:21:39;;;;;;;1.38;1.00;;;21.90;50.20;;;;;;4973136;28;20304;-69
2022/01/06 11:24:16;;;;;;;2.28;1.33;;;21.90;50.20;;;;;;4973192;28;20220;-70
2022/01/06 11:27:08;;;;;;;1.25;1.10;;;21.90;50.10;;;;;;4973106;28;20265;-70
2022/01/06 11:29:41;;;;;;;1.38;1.10;;;21.90;50.10;;;;;;4974134;28;20177;-69
2022/01/06 11:32:24;;;;;;;1.77;0.88;;;21.90;50.20;;;;;;4973967;28;20574;-69
2022/01/06 11:35:11;;;;;;;1.83;1.20;;;21.90;50.20;;;;;;4956491;28;20232;-70
2022/01/06 11:37:49;;;;;;;1.35;1.00;;;21.90;50.10;;;;;;4956684;28;20177;-69
2022/01/06 11:40:31;;;;;;;2.25;1.23;;;21.90;50.20;;;;;;4957020;28;20193;-69
2022/01/06 11:42:58;;;;;;;1.98;1.20;;;21.90;50.10;;;;;;4964653;28;20305;-70
2022/01/06 11:45:25;;;;;;;2.55;1.20;;;21.90;50.20;;;;;;4984437;28;20215;-70
2022/01/06 11:48:20;;;;;;;2.33;1.00;;;21.90;50.10;;;;;;4983439;28;20185;-69
2022/01/06 11:50:48;;;;;;;1.40;0.80;;;21.90;50.10;;;;;;4956421;28;20209;-69
2022/01/06 11:53:16;;;;;;;1.00;0.90;;;21.90;50.10;;;;;;4956696;28;20213;-70
2022/01/06 11:55:46;;;;;;;2.45;1.17;;;21.90;50.00;;;;;;4972238;28;20276;-69
2022/01/06 11:58:18;;;;;;;1.27;1.00;;;21.90;50.00;;;;;;4973553;28;20300;-70
2022/01/06 12:00:58;;;;;;;1.25;0.70;;;22.00;50.00;;;;;;5004990;28;20205;-69
2022/01/06 12:03:53;;;;;;;1.15;0.80;;;22.00;50.00;;;;;;4972228;28;20232;-69
2022/01/06 12:06:30;;;;;;;1.65;0.90;;;22.00;50.00;;;;;;4973680;28;20696;-70
2022/01/06 12:08:58;;;;;;;1.83;0.90;;;22.00;50.10;;;;;;4972479;28;20664;-70
2022/01/06 12:11:26;;;;;;;1.90;1.00;;;22.00;50.00;;;;;;4972311;28;20284;-70
2022/01/06 12:13:55;;;;;;;1.33;0.90;;;22.00;50.00;;;;;;4977835;28;20272;-70
2022/01/06 12:16:27;;;;;;;1.00;0.70;;;22.00;50.00;;;;;;4952768;28;20190;-70
2022/01/06 12:18:53;;;;;;;1.25;0.88;;;22.00;50.00;;;;;;4969153;28;20256;-70
2022/01/06 12:21:20;;;;;;;1.90;0.80;;;22.00;50.00;;;;;;4969326;28;20190;-70
2022/01/06 12:23:47;;;;;;;1.83;1.00;;;22.00;49.90;;;;;;4938924;29;20237;-69
2022/01/06 12:26:13;;;;;;;1.70;0.93;;;22.00;49.90;;;;;;4991615;28;20189;-70
2022/01/06 12:28:49;;;;;;;1.33;1.15;;;22.00;49.80;;;;;;4991570;28;20267;-69
2022/01/06 12:31:32;;;;;;;1.05;0.93;;;22.00;49.80;;;;;;4966807;28;20252;-70
2022/01/06 12:34:01;;;;;;;1.83;1.08;;;22.10;49.90;;;;;;4967171;28;20316;-69
2022/01/06 12:36:32;;;;;;;1.88;1.05;;;22.10;49.90;;;;;;4955909;28;20260;-70
2022/01/06 12:39:06;;;;;;;1.20;1.00;;;22.00;49.90;;;;;;4971901;28;20700;-69
2022/01/06 12:41:34;;;;;;;1.40;1.15;;;22.00;49.90;;;;;;4974700;28;20186;-70
2022/01/06 12:44:00;;;;;;;1.77;1.15;;;22.00;49.90;;;;;;4969124;28;20296;-69
2022/01/06 12:46:37;;;;;;;1.20;1.05;;;22.10;50.00;;;;;;4978151;28;20186;-69
2022/01/06 12:49:07;;;;;;;1.60;1.00;;;22.10;49.90;;;;;;4952675;29;20178;-70
2022/01/06 12:51:54;;;;;;;1.38;0.70;;;22.10;50.00;;;;;;4937074;29;20193;-69
2022/01/06 12:54:22;;;;;;;0.95;0.90;;;22.00;49.80;;;;;;4953762;29;20230;-70
2022/01/06 12:57:01;;;;;;;2.17;1.02;;;22.00;49.80;;;;;;4952646;29;20187;-70
2022/01/06 12:59:41;;;;;;;1.20;0.90;;;22.00;49.80;;;;;;4953869;28;20225;-70
2022/01/06 13:02:14;;;;;;;2.08;1.23;;;22.00;49.80;;;;;;4997918;23;20278;-72
2022/01/06 13:04:46;;;;;;;2.55;1.15;;;22.00;49.90;;;;;;4974356;28;20192;-71